Time;durP1;ratioP1;P1;durP2;ratioP2;P2;SDS_P1;SDS_P2;PMS_P1;PMS_P2;Temp;Humidity;BMP_temperature;BMP_pressure;BME280_temperature;BME280_humidity;BME280_pressure;Samples;Min_cycle;Max_cycle;Signal;HPM_P1;HPM_P2
2022/04/12 00:02:11;;;;;;;80.32;31.17;;;1.60;99.90;;;;;;4400608;28;657779;-68
2022/04/12 00:04:59;;;;;;;75.20;26.50;;;1.60;99.90;;;;;;4415977;28;657367;-68
2022/04/12 00:07:46;;;;;;;81.50;30.87;;;1.60;99.90;;;;;;4389545;28;657655;-68
2022/04/12 00:10:35;;;;;;;64.32;28.15;;;1.60;99.90;;;;;;4412274;28;658416;-68
2022/04/12 00:13:22;;;;;;;92.00;37.10;;;1.60;99.90;;;;;;4392995;28;658331;-68
2022/04/12 00:16:09;;;;;;;107.97;44.97;;;1.70;99.90;;;;;;4415280;28;657778;-68
2022/04/12 00:19:05;;;;;;;87.47;34.47;;;1.80;99.90;;;;;;4394634;28;659511;-68
2022/04/12 00:21:53;;;;;;;75.83;32.70;;;1.70;99.90;;;;;;4374003;28;658457;-68
2022/04/12 00:24:40;;;;;;;85.43;33.03;;;1.60;99.90;;;;;;4399129;28;657943;-68
2022/04/12 00:27:29;;;;;;;78.27;33.13;;;1.60;99.90;;;;;;4415951;28;658749;-69
2022/04/12 00:30:17;;;;;;;77.57;31.57;;;1.60;99.90;;;;;;4391400;28;657482;-68
2022/04/12 00:33:04;;;;;;;84.90;36.50;;;1.60;99.90;;;;;;4420865;28;657580;-68
2022/04/12 00:35:52;;;;;;;225.80;89.23;;;1.60;99.90;;;;;;4393091;28;657692;-68
2022/04/12 00:38:40;;;;;;;113.33;46.03;;;1.70;99.90;;;;;;4411807;28;659461;-68
2022/04/12 00:41:35;;;;;;;125.77;51.07;;;1.60;99.90;;;;;;4412683;28;660063;-68
2022/04/12 00:44:24;;;;;;;121.47;45.27;;;1.70;99.90;;;;;;4367103;28;659194;-68
2022/04/12 00:47:11;;;;;;;96.13;42.17;;;1.70;99.90;;;;;;4395454;28;658816;-68
2022/04/12 00:49:58;;;;;;;96.57;40.70;;;1.60;99.90;;;;;;4411193;28;658460;-68
2022/04/12 00:52:52;;;;;;;92.33;37.77;;;1.60;99.90;;;;;;4382078;28;658722;-68
2022/04/12 00:55:40;;;;;;;100.43;42.63;;;1.60;99.90;;;;;;4377651;28;657924;-68
2022/04/12 00:58:28;;;;;;;86.43;35.73;;;1.60;99.90;;;;;;4400264;28;659998;-68
2022/04/12 01:01:17;;;;;;;65.20;24.67;;;1.60;99.90;;;;;;4389194;28;657426;-68
2022/04/12 01:04:04;;;;;;;148.30;50.27;;;1.60;99.90;;;;;;4418720;28;657369;-68
2022/04/12 01:06:52;;;;;;;304.87;95.70;;;1.70;99.90;;;;;;4397012;28;659604;-68
2022/04/12 01:09:40;;;;;;;252.00;79.13;;;1.70;99.90;;;;;;4414815;28;658571;-68
2022/04/12 01:12:30;;;;;;;110.93;42.37;;;1.70;99.90;;;;;;4409350;28;660409;-68
2022/04/12 01:15:18;;;;;;;111.17;42.37;;;1.70;99.90;;;;;;4389045;28;659019;-68
2022/04/12 01:18:07;;;;;;;122.00;42.67;;;1.60;99.90;;;;;;4397798;28;658273;-68
2022/04/12 01:20:54;;;;;;;132.60;47.83;;;1.70;99.90;;;;;;4409704;28;658439;-68
2022/04/12 01:23:44;;;;;;;132.70;44.90;;;1.70;99.90;;;;;;4394065;28;658564;-68
2022/04/12 01:26:33;;;;;;;131.83;47.27;;;1.70;99.90;;;;;;4384194;28;659961;-68
2022/04/12 01:29:20;;;;;;;125.00;46.10;;;1.70;99.90;;;;;;4393600;28;659149;-68
2022/04/12 01:32:09;;;;;;;175.40;58.33;;;1.60;99.90;;;;;;4408659;28;659703;-68
2022/04/12 01:34:56;;;;;;;117.10;42.63;;;1.60;99.90;;;;;;4387762;28;658928;-68
2022/04/12 01:37:43;;;;;;;76.00;30.60;;;1.70;99.90;;;;;;4420520;28;659609;-68
2022/04/12 01:40:31;;;;;;;101.83;35.97;;;1.60;99.90;;;;;;4398171;28;657488;-68
2022/04/12 01:43:20;;;;;;;122.17;45.63;;;1.60;99.90;;;;;;4418929;28;659576;-68
2022/04/12 01:46:07;;;;;;;111.50;38.80;;;1.60;99.90;;;;;;4392142;28;660530;-68
2022/04/12 01:48:54;;;;;;;75.10;30.47;;;1.70;99.90;;;;;;4420737;28;659520;-68
2022/04/12 01:51:42;;;;;;;66.40;26.57;;;1.60;99.90;;;;;;4395538;28;658874;-68
2022/04/12 01:54:29;;;;;;;77.37;29.33;;;1.60;99.90;;;;;;4414260;28;657777;-68
2022/04/12 01:57:16;;;;;;;112.40;46.33;;;1.60;99.90;;;;;;4400858;28;658297;-68
2022/04/12 02:00:07;;;;;;;85.53;35.27;;;1.60;99.90;;;;;;4416796;28;659451;-68
2022/04/12 02:02:54;;;;;;;66.37;31.13;;;1.60;99.90;;;;;;4397274;28;657598;-68
2022/04/12 02:05:42;;;;;;;57.93;24.37;;;1.70;99.90;;;;;;4397989;28;657744;-68
2022/04/12 02:08:29;;;;;;;52.00;21.90;;;1.60;99.90;;;;;;4416257;28;657265;-68
2022/04/12 02:11:16;;;;;;;47.23;21.93;;;1.60;99.90;;;;;;4394956;28;658041;-68
2022/04/12 02:14:04;;;;;;;42.87;19.77;;;1.40;99.90;;;;;;4417389;28;657944;-68
2022/04/12 02:16:52;;;;;;;49.97;21.70;;;1.50;99.90;;;;;;4397387;28;658720;-68
2022/04/12 02:19:40;;;;;;;59.20;23.97;;;1.50;99.90;;;;;;4409238;28;657558;-68
2022/04/12 02:22:28;;;;;;;59.93;28.33;;;1.40;99.90;;;;;;4414157;28;659131;-68
2022/04/12 02:25:15;;;;;;;61.93;28.50;;;1.40;99.90;;;;;;4404716;28;658097;-68
2022/04/12 02:28:03;;;;;;;64.57;27.97;;;1.40;99.90;;;;;;4417405;28;658752;-68
2022/04/12 02:30:50;;;;;;;89.13;37.13;;;1.50;99.90;;;;;;4412273;28;657544;-68
2022/04/12 02:33:40;;;;;;;122.67;46.63;;;1.50;99.90;;;;;;4414379;28;658432;-69
2022/04/12 02:36:27;;;;;;;81.10;34.90;;;1.50;99.90;;;;;;4391235;28;660051;-68
2022/04/12 02:39:14;;;;;;;82.30;31.03;;;1.50;99.90;;;;;;4426072;28;657815;-68
2022/04/12 02:42:02;;;;;;;95.03;35.40;;;1.50;1.00;;;;;;4397008;28;658326;-68
2022/04/12 02:44:49;;;;;;;57.80;22.20;;;1.50;1.00;;;;;;4420998;28;656824;-68
2022/04/12 02:47:37;;;;;;;52.13;22.53;;;1.50;99.90;;;;;;4396934;28;656858;-68
2022/04/12 02:50:27;;;;;;;60.87;26.00;;;1.50;99.90;;;;;;4414144;28;658640;-68
2022/04/12 02:53:14;;;;;;;66.43;26.47;;;1.50;99.90;;;;;;4381530;28;657285;-68
2022/04/12 02:56:02;;;;;;;57.00;22.73;;;1.30;99.90;;;;;;4384573;28;658169;-68
2022/04/12 02:58:49;;;;;;;62.00;25.23;;;1.20;99.90;;;;;;4404036;28;657506;-68
2022/04/12 03:01:36;;;;;;;57.80;24.00;;;1.30;99.90;;;;;;4384074;28;657536;-68
2022/04/12 03:04:24;;;;;;;50.53;20.67;;;1.30;99.90;;;;;;4410965;28;658239;-68
2022/04/12 03:07:12;;;;;;;47.77;20.93;;;1.30;99.90;;;;;;4387966;28;659528;-68
2022/04/12 03:10:00;;;;;;;46.00;18.53;;;1.30;1.00;;;;;;4415980;28;657314;-68
2022/04/12 03:12:47;;;;;;;55.70;26.83;;;1.30;1.00;;;;;;4394540;28;657450;-69
2022/04/12 03:15:34;;;;;;;55.88;25.08;;;1.20;1.00;;;;;;4417983;28;657192;-68
2022/04/12 03:18:22;;;;;;;47.83;21.80;;;1.20;1.00;;;;;;4396395;28;657567;-68
2022/04/12 03:21:09;;;;;;;46.47;22.27;;;1.20;1.00;;;;;;4420757;28;656913;-68
2022/04/12 03:23:58;;;;;;;53.72;23.80;;;1.20;1.00;;;;;;4398560;28;656436;-68
2022/04/12 03:26:45;;;;;;;47.25;20.05;;;1.20;99.90;;;;;;4406840;28;656877;-68
2022/04/12 03:29:33;;;;;;;46.57;21.23;;;1.20;99.90;;;;;;4416680;28;659450;-68
2022/04/12 03:32:20;;;;;;;55.03;25.33;;;1.20;99.90;;;;;;4407992;28;657735;-68
2022/04/12 03:35:08;;;;;;;58.27;26.17;;;1.20;99.90;;;;;;4418950;28;658652;-68
2022/04/12 03:37:59;;;;;;;52.97;24.00;;;1.20;99.90;;;;;;4402760;28;657967;-68
2022/04/12 03:40:48;;;;;;;63.23;26.00;;;1.20;99.90;;;;;;4398123;28;657922;-68
2022/04/12 03:43:37;;;;;;;63.13;29.93;;;1.10;99.90;;;;;;4396802;28;657500;-68
2022/04/12 03:46:24;;;;;;;62.73;28.30;;;1.10;99.90;;;;;;4409813;28;658136;-68
2022/04/12 03:49:11;;;;;;;52.70;21.50;;;1.20;1.00;;;;;;4393807;28;658269;-68
2022/04/12 03:51:58;;;;;;;51.73;21.20;;;1.20;1.00;;;;;;4409637;28;656447;-68
2022/04/12 03:54:46;;;;;;;54.60;22.80;;;1.10;99.90;;;;;;4394627;28;656691;-68
2022/04/12 03:57:35;;;;;;;50.20;23.57;;;1.10;99.90;;;;;;4413307;28;658373;-68
2022/04/12 04:00:22;;;;;;;50.77;24.40;;;1.10;99.90;;;;;;4389509;28;659071;-68
2022/04/12 04:03:10;;;;;;;52.10;24.53;;;1.10;99.90;;;;;;4404256;28;658453;-68
2022/04/12 04:05:57;;;;;;;55.03;23.00;;;1.10;99.90;;;;;;4396139;28;658638;-68
2022/04/12 04:08:44;;;;;;;60.07;23.23;;;1.10;99.90;;;;;;4413534;28;657414;-68
2022/04/12 04:11:32;;;;;;;54.17;24.00;;;1.10;99.90;;;;;;4389053;28;657924;-68
2022/04/12 04:14:22;;;;;;;48.67;22.47;;;1.10;99.90;;;;;;4414111;28;657744;-68
2022/04/12 04:17:09;;;;;;;48.47;21.90;;;1.10;99.90;;;;;;4387229;28;658274;-68
2022/04/12 04:19:57;;;;;;;46.73;22.03;;;1.00;99.90;;;;;;4389430;28;657795;-68
2022/04/12 04:22:44;;;;;;;47.87;22.73;;;1.10;99.90;;;;;;4409249;28;657894;-68
2022/04/12 04:25:31;;;;;;;51.53;23.23;;;1.10;99.90;;;;;;4391462;28;658009;-68
2022/04/12 04:28:21;;;;;;;45.87;21.00;;;1.10;99.90;;;;;;4412079;28;657462;-68
2022/04/12 04:31:10;;;;;;;49.17;23.50;;;1.10;99.90;;;;;;4390357;28;658090;-68
2022/04/12 04:33:57;;;;;;;49.60;23.30;;;1.20;99.90;;;;;;4396584;28;658185;-68
2022/04/12 04:36:45;;;;;;;51.57;23.30;;;1.30;99.90;;;;;;4408690;28;657583;-68
2022/04/12 04:39:32;;;;;;;44.60;23.10;;;1.30;1.00;;;;;;4388003;28;658762;-68
2022/04/12 04:42:20;;;;;;;51.70;23.95;;;1.40;1.00;;;;;;4414272;28;657046;-69
2022/04/12 04:45:08;;;;;;;56.17;25.13;;;1.50;1.00;;;;;;4398578;28;658332;-68
2022/04/12 04:47:59;;;;;;;55.03;23.80;;;1.60;1.00;;;;;;4397236;28;656724;-68
2022/04/12 04:50:46;;;;;;;53.60;24.63;;;1.70;1.00;;;;;;4399815;28;656454;-68
2022/04/12 04:53:36;;;;;;;47.90;21.57;;;1.70;99.90;;;;;;4414616;28;656612;-68
2022/04/12 04:56:24;;;;;;;46.37;21.43;;;1.70;99.90;;;;;;4389359;28;658403;-68
2022/04/12 04:59:12;;;;;;;48.93;21.20;;;1.80;99.90;;;;;;4397864;28;658222;-69
2022/04/12 05:01:59;;;;;;;47.17;21.57;;;1.80;99.90;;;;;;4417104;28;657894;-68
2022/04/12 05:04:48;;;;;;;49.30;22.33;;;1.80;99.90;;;;;;4394111;28;657694;-68
2022/04/12 05:07:36;;;;;;;49.07;21.17;;;2.00;99.90;;;;;;4394322;28;657586;-69
2022/04/12 05:10:24;;;;;;;44.70;21.77;;;2.00;99.90;;;;;;4417323;28;658288;-69
2022/04/12 05:13:11;;;;;;;43.30;20.63;;;2.10;99.90;;;;;;4400615;28;658078;-68
2022/04/12 05:15:58;;;;;;;43.50;18.90;;;2.30;99.90;;;;;;4414874;28;658593;-69
2022/04/12 05:18:46;;;;;;;47.13;19.73;;;2.20;1.00;;;;;;4392877;28;657494;-68
2022/04/12 05:21:34;;;;;;;39.67;19.47;;;2.40;99.90;;;;;;4414782;28;657173;-68
2022/04/12 05:24:22;;;;;;;40.23;17.77;;;2.60;99.90;;;;;;4390287;28;657434;-68
2022/04/12 05:27:09;;;;;;;51.17;22.53;;;2.70;99.90;;;;;;4405099;28;658224;-69
2022/04/12 05:29:58;;;;;;;52.50;23.23;;;2.80;99.90;;;;;;4387016;28;658411;-69
2022/04/12 05:32:45;;;;;;;42.63;20.90;;;2.90;99.90;;;;;;4403200;28;658715;-68
2022/04/12 05:35:33;;;;;;;53.47;22.00;;;3.10;99.90;;;;;;4415771;28;658771;-69
2022/04/12 05:38:22;;;;;;;47.17;21.17;;;3.30;99.90;;;;;;4400114;28;657965;-68
2022/04/12 05:41:09;;;;;;;44.63;20.23;;;3.40;99.90;;;;;;4414246;28;658173;-69
2022/04/12 05:43:56;;;;;;;47.47;20.17;;;3.60;99.90;;;;;;4398353;28;657268;-69
2022/04/12 05:46:44;;;;;;;32.23;16.63;;;3.80;99.90;;;;;;4414538;28;657578;-69
2022/04/12 05:49:31;;;;;;;35.90;15.83;;;4.00;99.90;;;;;;4392532;28;657913;-69
2022/04/12 05:52:18;;;;;;;35.57;14.57;;;4.30;99.90;;;;;;4415565;28;659000;-68
2022/04/12 05:55:08;;;;;;;31.47;13.47;;;4.70;99.90;;;;;;4398366;28;657712;-69
2022/04/12 05:57:57;;;;;;;28.47;11.87;;;4.90;99.90;;;;;;4396630;28;657835;-69
2022/04/12 06:00:44;;;;;;;34.23;14.07;;;5.10;99.90;;;;;;4416885;28;658614;-68
2022/04/12 06:03:32;;;;;;;27.87;11.50;;;5.30;99.90;;;;;;4388892;28;657696;-69
2022/04/12 06:06:19;;;;;;;27.87;12.20;;;5.40;99.90;;;;;;4421836;28;657141;-68
2022/04/12 06:09:06;;;;;;;21.50;8.17;;;5.40;99.90;;;;;;4397083;28;657491;-68
2022/04/12 06:11:55;;;;;;;29.53;12.60;;;5.30;99.90;;;;;;4413302;28;657396;-68
2022/04/12 06:14:42;;;;;;;26.13;12.40;;;5.50;99.90;;;;;;4393741;28;657585;-68
2022/04/12 06:17:30;;;;;;;36.27;13.77;;;5.60;99.90;;;;;;4413579;28;657195;-68
2022/04/12 06:20:18;;;;;;;30.63;13.40;;;5.60;99.90;;;;;;4391412;28;658440;-68
2022/04/12 06:23:06;;;;;;;25.20;12.07;;;5.70;99.90;;;;;;4400308;28;657685;-67
2022/04/12 06:25:53;;;;;;;30.13;12.63;;;5.80;99.90;;;;;;4420503;28;659233;-67
2022/04/12 06:28:42;;;;;;;30.03;12.43;;;5.90;99.90;;;;;;4394948;28;658401;-68
2022/04/12 06:31:29;;;;;;;29.87;12.87;;;6.10;93.40;;;;;;4408834;28;658016;-68
2022/04/12 06:34:17;;;;;;;27.97;11.57;;;6.10;92.50;;;;;;4394941;28;658499;-68
2022/04/12 06:37:04;;;;;;;27.07;11.77;;;6.30;94.20;;;;;;4417659;28;657530;-68
2022/04/12 06:39:52;;;;;;;40.27;13.67;;;6.30;94.60;;;;;;4390909;28;657736;-67
2022/04/12 06:42:39;;;;;;;32.27;12.73;;;6.50;92.30;;;;;;4416577;28;657161;-68
2022/04/12 06:45:28;;;;;;;25.33;10.90;;;6.70;95.00;;;;;;4401114;28;657652;-68
2022/04/12 06:48:15;;;;;;;25.93;12.33;;;6.80;80.90;;;;;;4400350;28;657671;-68
2022/04/12 06:51:03;;;;;;;34.93;13.47;;;6.90;88.00;;;;;;4416401;28;658651;-68
2022/04/12 06:54:42;;;;;;;37.07;11.40;;;7.10;88.40;;;;;;4402437;28;657584;-68
2022/04/12 06:57:32;;;;;;;25.37;11.43;;;7.30;75.50;;;;;;4394760;28;657582;-68
2022/04/12 07:00:19;;;;;;;19.13;9.77;;;7.40;72.90;;;;;;4420704;28;658559;-68
2022/04/12 07:03:08;;;;;;;13.70;8.10;;;7.50;67.80;;;;;;4398754;28;656765;-68
2022/04/12 07:05:56;;;;;;;20.30;9.23;;;7.50;66.70;;;;;;4397300;28;656472;-68
2022/04/12 07:08:43;;;;;;;33.70;12.40;;;7.80;74.70;;;;;;4424649;28;657425;-68
2022/04/12 07:11:30;;;;;;;35.80;13.27;;;7.80;75.30;;;;;;4399790;28;657227;-68
2022/04/12 07:14:18;;;;;;;35.07;14.07;;;7.70;77.80;;;;;;4412663;28;658727;-68
2022/04/12 07:17:06;;;;;;;29.40;12.17;;;7.70;75.80;;;;;;4415739;28;658131;-68
2022/04/12 07:19:55;;;;;;;20.47;9.50;;;7.90;70.20;;;;;;4429539;28;658038;-68
2022/04/12 07:22:42;;;;;;;21.67;7.33;;;8.30;71.30;;;;;;4396914;28;657547;-68
2022/04/12 07:25:30;;;;;;;16.10;7.03;;;8.50;1.00;;;;;;4417749;28;656831;-68
2022/04/12 07:28:18;;;;;;;14.43;7.37;;;8.70;1.00;;;;;;4405181;28;657450;-68
2022/04/12 07:31:05;;;;;;;21.40;8.20;;;8.40;1.00;;;;;;4406696;28;655949;-68
2022/04/12 07:33:53;;;;;;;19.50;8.43;;;8.40;1.00;;;;;;4408582;28;657287;-68
2022/04/12 07:36:47;;;;;;;20.67;8.53;;;8.50;1.00;;;;;;4394002;28;655859;-68
2022/04/12 07:39:34;;;;;;;17.70;7.93;;;8.90;85.20;;;;;;4390509;28;655555;-68
2022/04/12 07:42:23;;;;;;;13.43;6.23;;;9.30;1.00;;;;;;4384472;28;656847;-68
2022/04/12 07:45:11;;;;;;;14.73;5.97;;;9.20;1.00;;;;;;4406982;28;656257;-68
2022/04/12 07:47:59;;;;;;;11.50;4.97;;;9.40;1.00;;;;;;4412132;28;656128;-68
2022/04/12 07:50:47;;;;;;;14.80;6.27;;;9.70;1.00;;;;;;4381938;28;655979;-69
2022/04/12 07:53:36;;;;;;;12.77;6.50;;;10.00;1.00;;;;;;4401749;28;655330;-68
2022/04/12 07:56:23;;;;;;;18.27;7.43;;;9.90;1.00;;;;;;4372488;28;656974;-68
2022/04/12 07:59:11;;;;;;;10.00;5.10;;;9.60;1.00;;;;;;4386911;28;656218;-69
2022/04/12 08:01:58;;;;;;;9.90;3.77;;;9.40;1.00;;;;;;4403717;28;656181;-68
2022/04/12 08:04:45;;;;;;;9.53;4.43;;;9.50;1.00;;;;;;4381676;28;654876;-68
2022/04/12 08:07:33;;;;;;;10.33;4.80;;;9.70;1.00;;;;;;4412607;28;655850;-68
2022/04/12 08:10:22;;;;;;;11.20;5.10;;;10.00;1.00;;;;;;4386410;28;655310;-68
2022/04/12 08:13:09;;;;;;;12.43;5.33;;;9.80;1.00;;;;;;4392007;28;656582;-68
2022/04/12 08:15:57;;;;;;;12.60;5.20;;;9.40;1.00;;;;;;4378010;28;655149;-68
2022/04/12 08:18:44;;;;;;;13.87;5.37;;;9.90;1.00;;;;;;4414398;28;655433;-68
2022/04/12 08:21:35;;;;;;;14.60;5.37;;;10.00;1.00;;;;;;4393683;28;655330;-68
2022/04/12 08:24:23;;;;;;;8.73;3.57;;;10.30;1.00;;;;;;4385958;28;657847;-68
2022/04/12 08:27:13;;;;;;;6.53;2.97;;;9.80;1.00;;;;;;4407297;28;655349;-68
2022/04/12 08:30:00;;;;;;;9.07;2.67;;;9.70;1.00;;;;;;4396300;28;654984;-68
2022/04/12 08:32:48;;;;;;;10.80;3.63;;;9.80;1.00;;;;;;4404807;28;654759;-68
2022/04/12 08:35:35;;;;;;;7.75;3.50;;;9.90;1.00;;;;;;4392847;28;656420;-68
2022/04/12 08:38:23;;;;;;;8.30;3.70;;;9.50;1.00;;;;;;4400753;28;655524;-68
2022/04/12 08:41:10;;;;;;;7.13;4.10;;;9.40;1.00;;;;;;4397444;28;654870;-69
2022/04/12 08:44:00;;;;;;;11.93;4.70;;;10.00;1.00;;;;;;4418605;28;655743;-69
2022/04/12 08:46:47;;;;;;;7.60;3.87;;;11.30;1.00;;;;;;4379437;28;656455;-69
2022/04/12 08:49:35;;;;;;;9.00;3.60;;;11.60;1.00;;;;;;4399930;28;656048;-68
2022/04/12 08:52:23;;;;;;;10.17;4.40;;;11.00;1.00;;;;;;4383213;28;656213;-69
2022/04/12 08:55:10;;;;;;;7.83;4.50;;;10.30;1.00;;;;;;4410243;28;656694;-69
2022/04/12 08:57:58;;;;;;;8.33;4.43;;;10.10;1.00;;;;;;4416823;28;656507;-69
2022/04/12 09:00:47;;;;;;;10.53;3.77;;;10.50;1.00;;;;;;4399913;28;655669;-69
2022/04/12 09:03:34;;;;;;;7.22;4.22;;;10.70;1.00;;;;;;4413370;28;656369;-69
2022/04/12 09:06:21;;;;;;;8.55;3.75;;;10.90;1.00;;;;;;4398521;28;655548;-69
2022/04/12 09:09:12;;;;;;;10.40;5.07;;;11.00;1.00;;;;;;4411225;28;656158;-68
2022/04/12 09:12:02;;;;;;;8.10;4.70;;;10.40;1.00;;;;;;4392020;28;656849;-69
2022/04/12 09:14:52;;;;;;;12.43;4.33;;;10.20;1.00;;;;;;4393446;28;656322;-69
2022/04/12 09:17:44;;;;;;;9.53;4.63;;;9.80;1.00;;;;;;4374977;28;657431;-68
2022/04/12 09:20:31;;;;;;;9.33;4.27;;;9.60;1.00;;;;;;4397819;28;654662;-68
2022/04/12 09:23:18;;;;;;;9.50;4.43;;;10.40;1.00;;;;;;4420811;28;655544;-68
2022/04/12 09:26:06;;;;;;;15.03;7.87;;;11.70;1.00;;;;;;4394863;28;656192;-69
2022/04/12 09:28:54;;;;;;;12.37;6.07;;;11.80;1.00;;;;;;4411428;28;656865;-69
2022/04/12 09:31:43;;;;;;;10.47;4.97;;;12.80;99.90;;;;;;4387681;28;656861;-69
2022/04/12 09:34:32;;;;;;;10.80;5.00;;;13.10;99.90;;;;;;4394053;28;658224;-69
2022/04/12 09:37:21;;;;;;;10.40;4.67;;;13.40;1.00;;;;;;4411723;28;658619;-69
2022/04/12 09:40:09;;;;;;;8.37;4.60;;;12.50;99.90;;;;;;4391851;28;656951;-69
2022/04/12 09:42:57;;;;;;;9.00;4.93;;;11.70;47.90;;;;;;4392947;28;656416;-69
2022/04/12 09:45:45;;;;;;;8.77;4.93;;;11.90;1.00;;;;;;4418604;28;656540;-69
2022/04/12 09:48:33;;;;;;;15.37;7.67;;;11.70;33.90;;;;;;4401555;28;656990;-69
2022/04/12 09:51:23;;;;;;;13.95;7.53;;;10.90;18.80;;;;;;4406864;28;657614;-69
2022/04/12 09:54:16;;;;;;;9.87;4.60;;;11.60;1.00;;;;;;4401664;28;657886;-69
2022/04/12 09:57:04;;;;;;;11.30;5.90;;;11.90;12.40;;;;;;4405720;28;656433;-69
2022/04/12 09:59:54;;;;;;;11.67;6.00;;;11.90;99.90;;;;;;4397356;28;657488;-69
2022/04/12 10:02:41;;;;;;;14.33;5.60;;;12.20;1.00;;;;;;4400172;28;657511;-69
2022/04/12 10:05:29;;;;;;;11.07;5.33;;;11.40;1.00;;;;;;4426752;28;657277;-69
2022/04/12 10:08:18;;;;;;;12.77;4.70;;;11.50;1.00;;;;;;4402792;28;657121;-70
2022/04/12 10:11:07;;;;;;;11.33;5.47;;;11.30;63.20;;;;;;4403762;28;656646;-69
2022/04/12 10:13:54;;;;;;;9.37;5.23;;;11.50;1.00;;;;;;4416148;28;658127;-69
2022/04/12 10:16:41;;;;;;;11.50;5.13;;;12.70;1.00;;;;;;4391699;28;655686;-69
2022/04/12 10:19:29;;;;;;;12.73;5.73;;;13.50;1.00;;;;;;4425339;28;656818;-69
2022/04/12 10:22:16;;;;;;;11.13;5.60;;;12.80;1.00;;;;;;4398870;28;656189;-69
2022/04/12 10:25:06;;;;;;;11.73;5.47;;;12.10;1.00;;;;;;4422383;28;657799;-70
2022/04/12 10:27:57;;;;;;;9.20;4.90;;;13.30;81.20;;;;;;4403069;28;657256;-69
2022/04/12 10:30:44;;;;;;;12.57;5.13;;;13.60;1.00;;;;;;4399375;28;657204;-70
2022/04/12 10:33:33;;;;;;;13.37;5.10;;;13.90;1.00;;;;;;4403242;28;657042;-69
2022/04/12 10:36:21;;;;;;;12.27;5.47;;;14.00;1.00;;;;;;4403235;28;656596;-69
2022/04/12 10:39:11;;;;;;;14.30;5.87;;;12.80;1.00;;;;;;4424019;28;656932;-69
2022/04/12 10:42:02;;;;;;;8.93;5.30;;;12.20;1.00;;;;;;4399383;28;656551;-69
2022/04/12 10:44:55;;;;;;;12.93;5.60;;;12.10;1.00;;;;;;4400264;28;655934;-69
2022/04/12 10:47:44;;;;;;;14.07;5.73;;;12.00;1.00;;;;;;4364051;28;658264;-69
2022/04/12 10:50:40;;;;;;;11.13;5.60;;;12.80;1.00;;;;;;4385377;28;656431;-69
2022/04/12 10:53:55;;;;;;;10.40;5.50;;;12.70;1.00;;;;;;4377439;28;657062;-69
2022/04/12 10:56:43;;;;;;;13.03;5.57;;;13.00;1.00;;;;;;4355074;28;657862;-69
2022/04/12 10:59:41;;;;;;;13.20;5.50;;;13.30;1.00;;;;;;4391820;28;656518;-69
2022/04/12 11:02:32;;;;;;;11.77;5.33;;;13.60;1.00;;;;;;4379578;28;658543;-69
2022/04/12 11:05:58;;;;;;;10.93;5.47;;;14.30;1.00;;;;;;4378914;28;656829;-69
2022/04/12 11:08:49;;;;;;;11.37;5.87;;;14.70;1.00;;;;;;4364203;28;656289;-69
2022/04/12 11:11:40;;;;;;;10.50;5.45;;;13.50;1.00;;;;;;4388039;28;657523;-69
2022/04/12 11:14:32;;;;;;;11.90;5.80;;;13.50;1.00;;;;;;4381781;28;656989;-69
2022/04/12 11:17:28;;;;;;;11.10;5.97;;;13.70;1.00;;;;;;4383429;28;657609;-69
2022/04/12 11:20:21;;;;;;;12.23;5.87;;;14.20;1.00;;;;;;4374176;28;656369;-69
2022/04/12 11:23:09;;;;;;;10.73;5.73;;;13.70;1.00;;;;;;4379252;28;656194;-69
2022/04/12 11:25:57;;;;;;;11.37;5.97;;;13.50;1.00;;;;;;4382297;28;657166;-69
2022/04/12 11:28:44;;;;;;;13.77;5.87;;;13.70;1.00;;;;;;4401878;28;656783;-69
2022/04/12 11:31:32;;;;;;;9.87;5.67;;;13.40;1.00;;;;;;4381718;28;657600;-69
2022/04/12 11:34:21;;;;;;;12.43;5.90;;;13.10;1.00;;;;;;4411869;28;655677;-69
2022/04/12 11:37:09;;;;;;;14.20;5.90;;;13.30;1.00;;;;;;4376544;28;656787;-69
2022/04/12 11:39:56;;;;;;;13.27;6.13;;;12.70;1.00;;;;;;4403245;28;656877;-69
2022/04/12 11:42:44;;;;;;;11.53;6.13;;;12.80;1.00;;;;;;4406286;28;656590;-69
2022/04/12 11:45:31;;;;;;;12.30;5.83;;;12.90;1.00;;;;;;4389261;28;656410;-69
2022/04/12 11:48:19;;;;;;;10.73;5.57;;;12.70;1.00;;;;;;4400252;28;656656;-68
2022/04/12 11:51:08;;;;;;;10.83;6.33;;;12.70;1.00;;;;;;4379251;28;656592;-69
2022/04/12 11:53:55;;;;;;;13.43;6.47;;;14.50;1.00;;;;;;4387786;28;656843;-69
2022/04/12 11:56:43;;;;;;;11.57;6.10;;;14.90;1.00;;;;;;4401570;28;658020;-69
2022/04/12 11:59:31;;;;;;;19.33;6.43;;;14.30;1.00;;;;;;4392773;28;656333;-69
2022/04/12 12:02:19;;;;;;;11.40;5.20;;;14.80;1.00;;;;;;4404721;28;657502;-70
2022/04/12 12:05:07;;;;;;;12.03;5.60;;;14.50;1.00;;;;;;4372145;28;656819;-70
2022/04/12 12:08:00;;;;;;;12.60;6.20;;;14.80;1.00;;;;;;4384762;28;657089;-69
2022/04/12 12:10:51;;;;;;;13.17;6.37;;;14.90;1.00;;;;;;4361951;28;657205;-70
2022/04/12 12:13:38;;;;;;;13.17;6.50;;;14.50;1.00;;;;;;4363298;28;656447;-68
2022/04/12 12:16:25;;;;;;;15.10;6.70;;;14.60;1.00;;;;;;4364259;28;656981;-69
2022/04/12 12:19:14;;;;;;;13.87;6.57;;;14.60;1.00;;;;;;4385654;28;658192;-69
2022/04/12 12:22:03;;;;;;;11.47;6.33;;;15.70;1.00;;;;;;4361897;28;657942;-69
2022/04/12 12:24:53;;;;;;;11.07;6.20;;;15.40;1.00;;;;;;4367421;28;656906;-68
2022/04/12 12:27:41;;;;;;;16.00;6.00;;;15.60;1.00;;;;;;4364724;28;656697;-68
2022/04/12 12:30:29;;;;;;;16.90;6.70;;;14.70;1.00;;;;;;4381828;28;657163;-68
2022/04/12 12:33:16;;;;;;;18.03;6.37;;;14.40;1.00;;;;;;4357554;28;656747;-68
2022/04/12 12:36:04;;;;;;;15.27;6.40;;;15.50;1.00;;;;;;4388764;28;656780;-68
2022/04/12 12:38:51;;;;;;;10.63;5.43;;;15.60;1.00;;;;;;4369666;28;657014;-68
2022/04/12 12:41:40;;;;;;;12.30;6.20;;;14.40;1.00;;;;;;4386631;28;658467;-69
2022/04/12 12:44:27;;;;;;;12.90;5.90;;;14.90;1.00;;;;;;4365177;28;657726;-68
2022/04/12 12:47:15;;;;;;;13.73;6.60;;;15.30;1.00;;;;;;4401293;28;657547;-68
2022/04/12 12:50:04;;;;;;;13.60;5.87;;;15.60;1.00;;;;;;4378914;28;658189;-68
2022/04/12 12:52:58;;;;;;;16.00;6.20;;;15.30;1.00;;;;;;4382939;28;656584;-69
2022/04/12 12:55:50;;;;;;;10.17;6.20;;;15.50;1.00;;;;;;4361296;28;657419;-69
2022/04/12 12:58:39;;;;;;;10.43;6.07;;;15.60;1.00;;;;;;4383464;28;656602;-68
2022/04/12 13:01:26;;;;;;;15.30;6.50;;;15.20;1.00;;;;;;4385546;28;656740;-68
2022/04/12 13:04:21;;;;;;;12.97;6.00;;;16.00;1.00;;;;;;4409746;28;657710;-68
2022/04/12 13:07:09;;;;;;;16.07;6.10;;;15.90;1.00;;;;;;4382184;28;656940;-68
2022/04/12 13:09:57;;;;;;;12.40;6.00;;;15.70;1.00;;;;;;4388438;28;656564;-68
2022/04/12 13:12:46;;;;;;;11.07;5.97;;;14.40;1.00;;;;;;4402418;28;657635;-68
2022/04/12 13:15:34;;;;;;;12.70;6.17;;;15.40;1.00;;;;;;4382290;28;656941;-68
2022/04/12 13:18:24;;;;;;;13.73;6.13;;;14.50;1.00;;;;;;4386845;28;657654;-68
2022/04/12 13:21:11;;;;;;;10.07;5.70;;;15.60;1.00;;;;;;4388963;28;656461;-68
2022/04/12 13:23:59;;;;;;;13.17;6.23;;;16.30;1.00;;;;;;4407958;28;656899;-68
2022/04/12 13:26:46;;;;;;;13.30;6.17;;;16.60;1.00;;;;;;4386092;28;656620;-68
2022/04/12 13:29:34;;;;;;;13.83;6.40;;;15.50;1.00;;;;;;4407758;28;656704;-68
2022/04/12 13:32:23;;;;;;;13.23;6.60;;;15.20;1.00;;;;;;4391632;28;656446;-68
2022/04/12 13:35:10;;;;;;;11.40;6.00;;;15.50;1.00;;;;;;4395710;28;656618;-68
2022/04/12 13:37:58;;;;;;;15.50;6.30;;;14.70;1.00;;;;;;4404337;28;657663;-68
2022/04/12 13:40:47;;;;;;;12.50;6.43;;;16.70;1.00;;;;;;4393737;28;656734;-68
2022/04/12 13:43:34;;;;;;;9.70;4.43;;;17.10;1.00;;;;;;4413023;28;657286;-68
2022/04/12 13:46:21;;;;;;;11.97;6.40;;;15.10;1.00;;;;;;4394327;28;656025;-68
2022/04/12 13:49:10;;;;;;;11.80;6.23;;;15.40;1.00;;;;;;4414209;28;657037;-68
2022/04/12 13:51:57;;;;;;;12.43;6.60;;;15.30;1.00;;;;;;4386585;28;657319;-68
2022/04/12 13:54:45;;;;;;;16.40;6.43;;;15.40;1.00;;;;;;4409190;28;657214;-68
2022/04/12 13:57:33;;;;;;;12.73;6.10;;;14.40;1.00;;;;;;4406872;28;657694;-67
2022/04/12 14:00:23;;;;;;;15.43;6.70;;;13.70;1.00;;;;;;4397725;28;656690;-69
2022/04/12 14:03:11;;;;;;;14.03;6.83;;;14.50;1.00;;;;;;4398364;28;656746;-68
2022/04/12 14:06:01;;;;;;;11.87;5.80;;;14.90;1.00;;;;;;4416236;28;657425;-68
2022/04/12 14:08:48;;;;;;;10.80;6.30;;;15.40;1.00;;;;;;4396763;28;656513;-68
2022/04/12 14:11:37;;;;;;;13.50;6.43;;;15.50;1.00;;;;;;4399329;28;656597;-69
2022/04/12 14:14:25;;;;;;;10.90;5.80;;;15.60;1.00;;;;;;4412304;28;656441;-69
2022/04/12 14:17:13;;;;;;;16.03;6.50;;;16.80;1.00;;;;;;4388423;28;657348;-69
2022/04/12 14:20:00;;;;;;;11.97;5.80;;;16.90;1.00;;;;;;4407122;28;656760;-68
2022/04/12 14:22:49;;;;;;;10.10;5.70;;;16.50;1.00;;;;;;4418025;28;657694;-68